sensor_id;sensor_type;location;lat;lon;timestamp;P1;durP1;ratioP1;P2;durP2;ratioP2
50301;SDS011;36550;50.472;19.744;2022-11-24T00:00:27;32.73;;;16.55;;
50301;SDS011;36550;50.472;19.744;2022-11-24T00:03:12;38.60;;;18.67;;
50301;SDS011;36550;50.472;19.744;2022-11-24T00:06:01;43.70;;;20.57;;
50301;SDS011;36550;50.472;19.744;2022-11-24T00:08:51;51.88;;;21.65;;
50301;SDS011;36550;50.472;19.744;2022-11-24T00:11:36;49.08;;;21.65;;
50301;SDS011;36550;50.472;19.744;2022-11-24T00:14:20;39.23;;;18.30;;
50301;SDS011;36550;50.472;19.744;2022-11-24T00:17:04;45.08;;;19.52;;
50301;SDS011;36550;50.472;19.744;2022-11-24T00:19:48;42.40;;;19.50;;
50301;SDS011;36550;50.472;19.744;2022-11-24T00:22:33;41.50;;;18.27;;
50301;SDS011;36550;50.472;19.744;2022-11-24T00:25:17;38.25;;;18.70;;
50301;SDS011;36550;50.472;19.744;2022-11-24T00:28:01;41.50;;;19.70;;
50301;SDS011;36550;50.472;19.744;2022-11-24T00:30:46;39.88;;;17.87;;
50301;SDS011;36550;50.472;19.744;2022-11-24T00:33:30;35.52;;;17.67;;
50301;SDS011;36550;50.472;19.744;2022-11-24T00:36:15;35.55;;;18.00;;
50301;SDS011;36550;50.472;19.744;2022-11-24T00:39:03;40.95;;;18.50;;
50301;SDS011;36550;50.472;19.744;2022-11-24T00:41:50;37.58;;;18.82;;
50301;SDS011;36550;50.472;19.744;2022-11-24T00:44:34;34.48;;;17.12;;
50301;SDS011;36550;50.472;19.744;2022-11-24T00:47:18;35.25;;;16.67;;
50301;SDS011;36550;50.472;19.744;2022-11-24T00:50:03;33.13;;;17.42;;
50301;SDS011;36550;50.472;19.744;2022-11-24T00:52:48;31.60;;;16.10;;
50301;SDS011;36550;50.472;19.744;2022-11-24T00:55:32;28.23;;;15.35;;
50301;SDS011;36550;50.472;19.744;2022-11-24T00:58:17;35.68;;;17.92;;
50301;SDS011;36550;50.472;19.744;2022-11-24T01:01:05;36.80;;;18.52;;
50301;SDS011;36550;50.472;19.744;2022-11-24T01:03:53;35.25;;;18.65;;
50301;SDS011;36550;50.472;19.744;2022-11-24T01:06:38;36.70;;;17.30;;
50301;SDS011;36550;50.472;19.744;2022-11-24T01:09:22;35.08;;;16.67;;
50301;SDS011;36550;50.472;19.744;2022-11-24T01:12:07;29.63;;;14.73;;
50301;SDS011;36550;50.472;19.744;2022-11-24T01:14:52;34.43;;;17.25;;
50301;SDS011;36550;50.472;19.744;2022-11-24T01:17:36;33.90;;;15.43;;
50301;SDS011;36550;50.472;19.744;2022-11-24T01:20:21;28.55;;;14.90;;
50301;SDS011;36550;50.472;19.744;2022-11-24T01:23:06;28.43;;;14.10;;
50301;SDS011;36550;50.472;19.744;2022-11-24T01:25:50;33.18;;;15.48;;
50301;SDS011;36550;50.472;19.744;2022-11-24T01:28:34;33.58;;;16.55;;
50301;SDS011;36550;50.472;19.744;2022-11-24T01:31:19;34.98;;;16.93;;
50301;SDS011;36550;50.472;19.744;2022-11-24T01:34:04;35.80;;;17.40;;
50301;SDS011;36550;50.472;19.744;2022-11-24T01:36:48;37.60;;;17.77;;
50301;SDS011;36550;50.472;19.744;2022-11-24T01:39:32;33.35;;;16.37;;
50301;SDS011;36550;50.472;19.744;2022-11-24T01:42:17;32.85;;;16.02;;
50301;SDS011;36550;50.472;19.744;2022-11-24T01:48:15;32.25;;;15.20;;
50301;SDS011;36550;50.472;19.744;2022-11-24T01:51:10;33.63;;;15.38;;
50301;SDS011;36550;50.472;19.744;2022-11-24T01:54:04;37.13;;;17.45;;
50301;SDS011;36550;50.472;19.744;2022-11-24T01:56:57;36.93;;;18.37;;
50301;SDS011;36550;50.472;19.744;2022-11-24T01:59:45;35.28;;;17.45;;
50301;SDS011;36550;50.472;19.744;2022-11-24T02:02:31;37.58;;;16.87;;
50301;SDS011;36550;50.472;19.744;2022-11-24T02:05:17;32.17;;;15.23;;
50301;SDS011;36550;50.472;19.744;2022-11-24T02:08:10;35.90;;;16.15;;
50301;SDS011;36550;50.472;19.744;2022-11-24T02:11:03;36.60;;;16.57;;
50301;SDS011;36550;50.472;19.744;2022-11-24T02:13:48;30.85;;;15.70;;
50301;SDS011;36550;50.472;19.744;2022-11-24T02:16:34;35.08;;;15.78;;
50301;SDS011;36550;50.472;19.744;2022-11-24T02:28:44;38.08;;;18.48;;
50301;SDS011;36550;50.472;19.744;2022-11-24T02:31:29;38.95;;;18.50;;
50301;SDS011;36550;50.472;19.744;2022-11-24T02:34:13;41.13;;;17.65;;
50301;SDS011;36550;50.472;19.744;2022-11-24T02:36:57;39.73;;;17.67;;
50301;SDS011;36550;50.472;19.744;2022-11-24T02:39:42;36.42;;;17.12;;
50301;SDS011;36550;50.472;19.744;2022-11-24T02:42:27;35.55;;;16.70;;
50301;SDS011;36550;50.472;19.744;2022-11-24T02:45:15;33.85;;;16.15;;
50301;SDS011;36550;50.472;19.744;2022-11-24T02:47:59;37.10;;;18.05;;
50301;SDS011;36550;50.472;19.744;2022-11-24T02:50:44;36.50;;;17.45;;
50301;SDS011;36550;50.472;19.744;2022-11-24T02:53:28;37.75;;;17.25;;
50301;SDS011;36550;50.472;19.744;2022-11-24T02:56:12;34.50;;;17.25;;
50301;SDS011;36550;50.472;19.744;2022-11-24T02:58:57;35.20;;;16.75;;
50301;SDS011;36550;50.472;19.744;2022-11-24T03:01:41;31.85;;;15.15;;
50301;SDS011;36550;50.472;19.744;2022-11-24T03:04:25;33.23;;;15.85;;
50301;SDS011;36550;50.472;19.744;2022-11-24T03:07:09;32.90;;;16.20;;
50301;SDS011;36550;50.472;19.744;2022-11-24T03:09:54;29.65;;;14.70;;
50301;SDS011;36550;50.472;19.744;2022-11-24T03:12:38;34.25;;;15.45;;
50301;SDS011;36550;50.472;19.744;2022-11-24T03:15:22;31.25;;;15.05;;
50301;SDS011;36550;50.472;19.744;2022-11-24T03:18:07;37.48;;;17.02;;
50301;SDS011;36550;50.472;19.744;2022-11-24T03:20:51;34.75;;;16.12;;
50301;SDS011;36550;50.472;19.744;2022-11-24T03:23:36;33.45;;;16.50;;
50301;SDS011;36550;50.472;19.744;2022-11-24T03:26:20;30.77;;;15.40;;
50301;SDS011;36550;50.472;19.744;2022-11-24T03:29:07;36.28;;;16.80;;
50301;SDS011;36550;50.472;19.744;2022-11-24T03:31:52;33.80;;;16.07;;
50301;SDS011;36550;50.472;19.744;2022-11-24T03:34:36;32.88;;;15.93;;
50301;SDS011;36550;50.472;19.744;2022-11-24T03:37:20;35.48;;;17.32;;
50301;SDS011;36550;50.472;19.744;2022-11-24T03:40:05;35.28;;;17.77;;
50301;SDS011;36550;50.472;19.744;2022-11-24T03:42:50;38.02;;;17.80;;
50301;SDS011;36550;50.472;19.744;2022-11-24T03:45:34;39.38;;;18.85;;
50301;SDS011;36550;50.472;19.744;2022-11-24T03:48:19;35.92;;;17.65;;
50301;SDS011;36550;50.472;19.744;2022-11-24T03:51:03;35.08;;;17.57;;
50301;SDS011;36550;50.472;19.744;2022-11-24T03:53:48;36.08;;;18.00;;
50301;SDS011;36550;50.472;19.744;2022-11-24T03:56:33;36.75;;;17.23;;
50301;SDS011;36550;50.472;19.744;2022-11-24T03:59:17;40.48;;;17.07;;
50301;SDS011;36550;50.472;19.744;2022-11-24T04:02:01;36.58;;;16.60;;
50301;SDS011;36550;50.472;19.744;2022-11-24T04:04:45;37.13;;;17.23;;
50301;SDS011;36550;50.472;19.744;2022-11-24T04:07:31;38.42;;;18.10;;
50301;SDS011;36550;50.472;19.744;2022-11-24T04:10:16;39.50;;;18.80;;
50301;SDS011;36550;50.472;19.744;2022-11-24T04:13:00;45.58;;;18.92;;
50301;SDS011;36550;50.472;19.744;2022-11-24T04:15:47;38.98;;;16.97;;
50301;SDS011;36550;50.472;19.744;2022-11-24T04:18:31;37.25;;;17.20;;
50301;SDS011;36550;50.472;19.744;2022-11-24T04:21:15;34.13;;;16.35;;
50301;SDS011;36550;50.472;19.744;2022-11-24T04:24:00;33.67;;;16.23;;
50301;SDS011;36550;50.472;19.744;2022-11-24T04:26:44;33.35;;;15.05;;
50301;SDS011;36550;50.472;19.744;2022-11-24T04:29:28;36.68;;;16.80;;
50301;SDS011;36550;50.472;19.744;2022-11-24T04:32:13;32.70;;;15.90;;
50301;SDS011;36550;50.472;19.744;2022-11-24T04:34:57;38.02;;;17.50;;
50301;SDS011;36550;50.472;19.744;2022-11-24T04:37:41;35.33;;;16.97;;
50301;SDS011;36550;50.472;19.744;2022-11-24T04:40:25;40.17;;;17.35;;
50301;SDS011;36550;50.472;19.744;2022-11-24T04:43:10;45.38;;;19.57;;
50301;SDS011;36550;50.472;19.744;2022-11-24T04:45:54;38.50;;;18.55;;
50301;SDS011;36550;50.472;19.744;2022-11-24T04:48:38;48.23;;;21.80;;
50301;SDS011;36550;50.472;19.744;2022-11-24T04:51:23;55.05;;;24.50;;
50301;SDS011;36550;50.472;19.744;2022-11-24T04:54:08;44.35;;;20.65;;
50301;SDS011;36550;50.472;19.744;2022-11-24T04:56:54;44.15;;;19.42;;
50301;SDS011;36550;50.472;19.744;2022-11-24T04:59:38;40.43;;;20.02;;
50301;SDS011;36550;50.472;19.744;2022-11-24T05:02:22;39.48;;;19.27;;
50301;SDS011;36550;50.472;19.744;2022-11-24T05:05:07;46.08;;;21.00;;
50301;SDS011;36550;50.472;19.744;2022-11-24T05:07:51;38.00;;;18.10;;
50301;SDS011;36550;50.472;19.744;2022-11-24T05:10:36;39.55;;;19.37;;
50301;SDS011;36550;50.472;19.744;2022-11-24T05:13:20;42.80;;;19.55;;
50301;SDS011;36550;50.472;19.744;2022-11-24T05:16:04;40.40;;;18.23;;
50301;SDS011;36550;50.472;19.744;2022-11-24T05:18:49;35.88;;;16.23;;
50301;SDS011;36550;50.472;19.744;2022-11-24T05:21:33;35.25;;;16.82;;
50301;SDS011;36550;50.472;19.744;2022-11-24T05:24:18;32.28;;;15.53;;
50301;SDS011;36550;50.472;19.744;2022-11-24T05:27:02;41.37;;;19.25;;
50301;SDS011;36550;50.472;19.744;2022-11-24T05:29:46;42.70;;;20.60;;
50301;SDS011;36550;50.472;19.744;2022-11-24T05:32:31;48.33;;;22.48;;
50301;SDS011;36550;50.472;19.744;2022-11-24T05:35:15;53.78;;;23.75;;
50301;SDS011;36550;50.472;19.744;2022-11-24T05:38:02;57.25;;;26.12;;
50301;SDS011;36550;50.472;19.744;2022-11-24T05:40:47;45.52;;;22.48;;
50301;SDS011;36550;50.472;19.744;2022-11-24T05:43:31;49.18;;;21.87;;
50301;SDS011;36550;50.472;19.744;2022-11-24T05:46:15;62.78;;;23.32;;
50301;SDS011;36550;50.472;19.744;2022-11-24T05:49:00;62.58;;;24.60;;
50301;SDS011;36550;50.472;19.744;2022-11-24T05:51:44;70.12;;;25.20;;
50301;SDS011;36550;50.472;19.744;2022-11-24T05:54:28;57.13;;;23.10;;
50301;SDS011;36550;50.472;19.744;2022-11-24T05:57:12;45.17;;;20.02;;
50301;SDS011;36550;50.472;19.744;2022-11-24T05:59:57;46.80;;;20.12;;
50301;SDS011;36550;50.472;19.744;2022-11-24T06:02:41;42.85;;;20.50;;
50301;SDS011;36550;50.472;19.744;2022-11-24T06:05:26;57.30;;;25.88;;
50301;SDS011;36550;50.472;19.744;2022-11-24T06:08:11;81.30;;;34.55;;
50301;SDS011;36550;50.472;19.744;2022-11-24T06:10:59;70.00;;;29.80;;
50301;SDS011;36550;50.472;19.744;2022-11-24T06:13:46;56.83;;;25.10;;
50301;SDS011;36550;50.472;19.744;2022-11-24T06:16:31;56.23;;;25.62;;
50301;SDS011;36550;50.472;19.744;2022-11-24T06:19:15;73.05;;;30.25;;
50301;SDS011;36550;50.472;19.744;2022-11-24T06:22:00;82.78;;;34.38;;
50301;SDS011;36550;50.472;19.744;2022-11-24T06:24:44;59.20;;;25.77;;
50301;SDS011;36550;50.472;19.744;2022-11-24T06:27:29;53.45;;;24.52;;
50301;SDS011;36550;50.472;19.744;2022-11-24T06:30:14;54.63;;;25.80;;
50301;SDS011;36550;50.472;19.744;2022-11-24T06:32:58;103.72;;;52.85;;
50301;SDS011;36550;50.472;19.744;2022-11-24T06:35:43;89.92;;;43.60;;
50301;SDS011;36550;50.472;19.744;2022-11-24T06:38:27;70.03;;;34.00;;
50301;SDS011;36550;50.472;19.744;2022-11-24T06:41:12;83.15;;;38.88;;
50301;SDS011;36550;50.472;19.744;2022-11-24T06:44:00;106.47;;;40.12;;
50301;SDS011;36550;50.472;19.744;2022-11-24T06:46:47;92.47;;;37.25;;
50301;SDS011;36550;50.472;19.744;2022-11-24T06:49:31;71.57;;;31.30;;
50301;SDS011;36550;50.472;19.744;2022-11-24T06:52:16;62.88;;;28.27;;
50301;SDS011;36550;50.472;19.744;2022-11-24T06:55:00;54.65;;;26.97;;
50301;SDS011;36550;50.472;19.744;2022-11-24T06:57:44;72.35;;;31.30;;
50301;SDS011;36550;50.472;19.744;2022-11-24T07:00:28;72.75;;;34.55;;
50301;SDS011;36550;50.472;19.744;2022-11-24T07:03:15;68.37;;;31.82;;
50301;SDS011;36550;50.472;19.744;2022-11-24T07:05:59;72.65;;;35.60;;
50301;SDS011;36550;50.472;19.744;2022-11-24T07:08:44;66.45;;;31.15;;
50301;SDS011;36550;50.472;19.744;2022-11-24T07:11:28;71.12;;;32.75;;
50301;SDS011;36550;50.472;19.744;2022-11-24T07:14:13;71.22;;;30.50;;
50301;SDS011;36550;50.472;19.744;2022-11-24T07:16:57;63.92;;;25.92;;
50301;SDS011;36550;50.472;19.744;2022-11-24T07:19:41;62.50;;;25.77;;
50301;SDS011;36550;50.472;19.744;2022-11-24T07:22:25;55.35;;;26.97;;
50301;SDS011;36550;50.472;19.744;2022-11-24T07:25:10;56.35;;;24.70;;
50301;SDS011;36550;50.472;19.744;2022-11-24T07:27:56;66.02;;;32.60;;
50301;SDS011;36550;50.472;19.744;2022-11-24T07:30:42;67.37;;;35.35;;
50301;SDS011;36550;50.472;19.744;2022-11-24T07:33:26;66.33;;;31.20;;
50301;SDS011;36550;50.472;19.744;2022-11-24T07:36:10;75.72;;;34.10;;
50301;SDS011;36550;50.472;19.744;2022-11-24T07:38:55;63.13;;;27.85;;
50301;SDS011;36550;50.472;19.744;2022-11-24T07:41:39;81.63;;;32.00;;
50301;SDS011;36550;50.472;19.744;2022-11-24T07:44:24;73.95;;;31.35;;
50301;SDS011;36550;50.472;19.744;2022-11-24T07:47:08;67.70;;;28.07;;
50301;SDS011;36550;50.472;19.744;2022-11-24T07:49:52;68.07;;;27.15;;
50301;SDS011;36550;50.472;19.744;2022-11-24T07:52:37;56.48;;;24.60;;
50301;SDS011;36550;50.472;19.744;2022-11-24T07:55:22;51.68;;;23.52;;
50301;SDS011;36550;50.472;19.744;2022-11-24T07:58:06;54.95;;;23.15;;
50301;SDS011;36550;50.472;19.744;2022-11-24T08:00:50;55.73;;;25.55;;
50301;SDS011;36550;50.472;19.744;2022-11-24T08:03:35;91.25;;;44.48;;
50301;SDS011;36550;50.472;19.744;2022-11-24T08:06:19;122.87;;;54.20;;
50301;SDS011;36550;50.472;19.744;2022-11-24T08:09:03;105.40;;;48.05;;
50301;SDS011;36550;50.472;19.744;2022-11-24T08:11:48;96.97;;;42.17;;
50301;SDS011;36550;50.472;19.744;2022-11-24T08:14:32;85.60;;;41.73;;
50301;SDS011;36550;50.472;19.744;2022-11-24T08:17:17;172.00;;;89.92;;
50301;SDS011;36550;50.472;19.744;2022-11-24T08:20:02;99.52;;;48.90;;
50301;SDS011;36550;50.472;19.744;2022-11-24T08:22:47;92.37;;;43.80;;
50301;SDS011;36550;50.472;19.744;2022-11-24T08:25:32;83.35;;;38.13;;
50301;SDS011;36550;50.472;19.744;2022-11-24T08:28:16;75.22;;;34.13;;
50301;SDS011;36550;50.472;19.744;2022-11-24T08:31:05;71.25;;;30.65;;
50301;SDS011;36550;50.472;19.744;2022-11-24T08:33:53;79.80;;;33.55;;
50301;SDS011;36550;50.472;19.744;2022-11-24T08:39:23;48.28;;;22.65;;
50301;SDS011;36550;50.472;19.744;2022-11-24T08:42:07;7.87;;;4.55;;
50301;SDS011;36550;50.472;19.744;2022-11-24T08:44:52;9.33;;;5.03;;
50301;SDS011;36550;50.472;19.744;2022-11-24T08:47:36;6.78;;;3.60;;
50301;SDS011;36550;50.472;19.744;2022-11-24T08:50:21;6.45;;;3.40;;
50301;SDS011;36550;50.472;19.744;2022-11-24T08:53:06;5.87;;;3.50;;
50301;SDS011;36550;50.472;19.744;2022-11-24T08:55:51;7.97;;;3.45;;
50301;SDS011;36550;50.472;19.744;2022-11-24T08:58:35;5.83;;;3.22;;
50301;SDS011;36550;50.472;19.744;2022-11-24T09:01:21;5.83;;;3.85;;
50301;SDS011;36550;50.472;19.744;2022-11-24T09:04:06;8.23;;;4.13;;
50301;SDS011;36550;50.472;19.744;2022-11-24T09:06:50;7.35;;;4.20;;
50301;SDS011;36550;50.472;19.744;2022-11-24T09:09:35;6.80;;;3.42;;
50301;SDS011;36550;50.472;19.744;2022-11-24T09:12:19;5.60;;;3.35;;
50301;SDS011;36550;50.472;19.744;2022-11-24T09:15:04;8.90;;;4.67;;
50301;SDS011;36550;50.472;19.744;2022-11-24T09:17:49;9.15;;;4.40;;
50301;SDS011;36550;50.472;19.744;2022-11-24T09:20:33;8.15;;;4.92;;
50301;SDS011;36550;50.472;19.744;2022-11-24T09:23:18;8.83;;;5.08;;
50301;SDS011;36550;50.472;19.744;2022-11-24T09:26:03;8.48;;;4.90;;
50301;SDS011;36550;50.472;19.744;2022-11-24T09:28:53;8.90;;;5.10;;
50301;SDS011;36550;50.472;19.744;2022-11-24T09:31:39;8.60;;;4.95;;
50301;SDS011;36550;50.472;19.744;2022-11-24T09:34:23;9.03;;;5.35;;
50301;SDS011;36550;50.472;19.744;2022-11-24T09:37:08;8.80;;;5.05;;
50301;SDS011;36550;50.472;19.744;2022-11-24T09:39:52;9.33;;;5.45;;
50301;SDS011;36550;50.472;19.744;2022-11-24T09:45:38;9.70;;;6.00;;
50301;SDS011;36550;50.472;19.744;2022-11-24T09:48:29;8.70;;;5.67;;
50301;SDS011;36550;50.472;19.744;2022-11-24T09:51:18;10.68;;;6.22;;
50301;SDS011;36550;50.472;19.744;2022-11-24T09:54:20;9.10;;;5.87;;
50301;SDS011;36550;50.472;19.744;2022-11-24T09:57:09;9.30;;;5.37;;
50301;SDS011;36550;50.472;19.744;2022-11-24T09:59:56;10.15;;;5.55;;
50301;SDS011;36550;50.472;19.744;2022-11-24T10:02:44;15.32;;;7.78;;
50301;SDS011;36550;50.472;19.744;2022-11-24T10:05:32;14.83;;;7.50;;
50301;SDS011;36550;50.472;19.744;2022-11-24T10:08:25;13.78;;;8.68;;
50301;SDS011;36550;50.472;19.744;2022-11-24T10:11:28;13.45;;;7.30;;
50301;SDS011;36550;50.472;19.744;2022-11-24T10:21:32;12.18;;;6.78;;
50301;SDS011;36550;50.472;19.744;2022-11-24T10:27:46;9.10;;;5.62;;
50301;SDS011;36550;50.472;19.744;2022-11-24T10:30:33;9.58;;;6.37;;
50301;SDS011;36550;50.472;19.744;2022-11-24T10:33:18;11.68;;;6.65;;
50301;SDS011;36550;50.472;19.744;2022-11-24T10:36:09;11.10;;;6.67;;
50301;SDS011;36550;50.472;19.744;2022-11-24T10:39:00;13.83;;;7.25;;
50301;SDS011;36550;50.472;19.744;2022-11-24T10:41:51;11.08;;;5.97;;
50301;SDS011;36550;50.472;19.744;2022-11-24T10:44:42;10.68;;;6.17;;
50301;SDS011;36550;50.472;19.744;2022-11-24T10:47:26;9.23;;;5.55;;
50301;SDS011;36550;50.472;19.744;2022-11-24T10:56:03;11.53;;;6.30;;
50301;SDS011;36550;50.472;19.744;2022-11-24T10:58:48;9.70;;;6.35;;
50301;SDS011;36550;50.472;19.744;2022-11-24T11:01:32;13.30;;;7.80;;
50301;SDS011;36550;50.472;19.744;2022-11-24T11:04:24;10.30;;;6.22;;
50301;SDS011;36550;50.472;19.744;2022-11-24T11:10:17;11.50;;;6.95;;
50301;SDS011;36550;50.472;19.744;2022-11-24T11:13:22;12.98;;;6.87;;
50301;SDS011;36550;50.472;19.744;2022-11-24T11:16:17;12.07;;;6.72;;
50301;SDS011;36550;50.472;19.744;2022-11-24T11:22:26;12.53;;;7.70;;
50301;SDS011;36550;50.472;19.744;2022-11-24T11:25:20;13.68;;;8.80;;
50301;SDS011;36550;50.472;19.744;2022-11-24T11:31:17;13.78;;;8.05;;
50301;SDS011;36550;50.472;19.744;2022-11-24T11:37:01;13.62;;;7.92;;
50301;SDS011;36550;50.472;19.744;2022-11-24T11:39:48;14.65;;;8.48;;
50301;SDS011;36550;50.472;19.744;2022-11-24T11:42:40;13.13;;;8.38;;
50301;SDS011;36550;50.472;19.744;2022-11-24T11:45:39;15.58;;;9.03;;
50301;SDS011;36550;50.472;19.744;2022-11-24T11:48:23;15.93;;;9.23;;
50301;SDS011;36550;50.472;19.744;2022-11-24T11:51:32;14.80;;;8.98;;
50301;SDS011;36550;50.472;19.744;2022-11-24T11:57:49;15.90;;;8.98;;
50301;SDS011;36550;50.472;19.744;2022-11-24T12:00:57;14.40;;;8.88;;
50301;SDS011;36550;50.472;19.744;2022-11-24T12:07:13;16.15;;;9.78;;
50301;SDS011;36550;50.472;19.744;2022-11-24T12:10:25;16.67;;;9.43;;
50301;SDS011;36550;50.472;19.744;2022-11-24T12:26:23;17.92;;;10.53;;
50301;SDS011;36550;50.472;19.744;2022-11-24T12:35:45;19.15;;;10.23;;
50301;SDS011;36550;50.472;19.744;2022-11-24T12:48:12;19.40;;;9.10;;
50301;SDS011;36550;50.472;19.744;2022-11-24T12:50:58;16.50;;;9.63;;
50301;SDS011;36550;50.472;19.744;2022-11-24T12:53:45;19.02;;;10.45;;
50301;SDS011;36550;50.472;19.744;2022-11-24T12:56:35;20.05;;;10.48;;
50301;SDS011;36550;50.472;19.744;2022-11-24T13:02:53;21.20;;;10.55;;
50301;SDS011;36550;50.472;19.744;2022-11-24T13:06:17;21.27;;;10.93;;
50301;SDS011;36550;50.472;19.744;2022-11-24T13:09:34;20.60;;;11.78;;
50301;SDS011;36550;50.472;19.744;2022-11-24T13:12:19;21.37;;;11.95;;
50301;SDS011;36550;50.472;19.744;2022-11-24T13:15:13;22.93;;;11.75;;
50301;SDS011;36550;50.472;19.744;2022-11-24T13:17:58;21.87;;;11.75;;
50301;SDS011;36550;50.472;19.744;2022-11-24T13:20:43;20.65;;;11.05;;
50301;SDS011;36550;50.472;19.744;2022-11-24T13:23:27;21.17;;;11.18;;
50301;SDS011;36550;50.472;19.744;2022-11-24T13:26:13;23.52;;;12.20;;
50301;SDS011;36550;50.472;19.744;2022-11-24T13:29:01;23.92;;;12.28;;
50301;SDS011;36550;50.472;19.744;2022-11-24T13:31:47;24.87;;;12.65;;
50301;SDS011;36550;50.472;19.744;2022-11-24T13:40:35;24.12;;;12.45;;
50301;SDS011;36550;50.472;19.744;2022-11-24T13:43:22;23.38;;;12.15;;
50301;SDS011;36550;50.472;19.744;2022-11-24T13:46:06;22.35;;;11.73;;
50301;SDS011;36550;50.472;19.744;2022-11-24T13:48:56;23.12;;;11.03;;
50301;SDS011;36550;50.472;19.744;2022-11-24T13:51:41;21.25;;;11.75;;
50301;SDS011;36550;50.472;19.744;2022-11-24T13:54:26;21.48;;;11.48;;
50301;SDS011;36550;50.472;19.744;2022-11-24T13:57:30;23.27;;;11.53;;
50301;SDS011;36550;50.472;19.744;2022-11-24T14:03:19;20.17;;;10.65;;
50301;SDS011;36550;50.472;19.744;2022-11-24T14:09:30;26.05;;;12.88;;
50301;SDS011;36550;50.472;19.744;2022-11-24T14:12:33;26.05;;;12.30;;
50301;SDS011;36550;50.472;19.744;2022-11-24T14:15:22;24.72;;;12.18;;
50301;SDS011;36550;50.472;19.744;2022-11-24T14:18:20;20.00;;;10.40;;
50301;SDS011;36550;50.472;19.744;2022-11-24T14:24:26;24.47;;;12.45;;
50301;SDS011;36550;50.472;19.744;2022-11-24T14:27:15;27.30;;;14.13;;
50301;SDS011;36550;50.472;19.744;2022-11-24T14:32:59;31.75;;;14.58;;
50301;SDS011;36550;50.472;19.744;2022-11-24T14:35:45;29.92;;;14.65;;
50301;SDS011;36550;50.472;19.744;2022-11-24T14:38:32;24.43;;;13.05;;
50301;SDS011;36550;50.472;19.744;2022-11-24T14:41:24;24.20;;;12.28;;
50301;SDS011;36550;50.472;19.744;2022-11-24T14:47:04;29.00;;;13.83;;
50301;SDS011;36550;50.472;19.744;2022-11-24T14:49:52;32.17;;;15.43;;
50301;SDS011;36550;50.472;19.744;2022-11-24T14:52:51;34.50;;;15.68;;
50301;SDS011;36550;50.472;19.744;2022-11-24T14:55:38;30.10;;;14.25;;
50301;SDS011;36550;50.472;19.744;2022-11-24T14:58:29;27.13;;;13.62;;
50301;SDS011;36550;50.472;19.744;2022-11-24T15:04:21;28.62;;;14.35;;
50301;SDS011;36550;50.472;19.744;2022-11-24T15:07:17;32.00;;;15.72;;
50301;SDS011;36550;50.472;19.744;2022-11-24T15:10:17;34.45;;;15.43;;
50301;SDS011;36550;50.472;19.744;2022-11-24T15:13:12;32.55;;;17.12;;
50301;SDS011;36550;50.472;19.744;2022-11-24T15:16:05;35.85;;;17.62;;
50301;SDS011;36550;50.472;19.744;2022-11-24T15:19:00;41.28;;;19.10;;
50301;SDS011;36550;50.472;19.744;2022-11-24T15:21:45;38.65;;;18.62;;
50301;SDS011;36550;50.472;19.744;2022-11-24T15:24:29;33.08;;;16.97;;
50301;SDS011;36550;50.472;19.744;2022-11-24T15:27:14;39.83;;;19.25;;
50301;SDS011;36550;50.472;19.744;2022-11-24T15:29:58;79.58;;;35.85;;
50301;SDS011;36550;50.472;19.744;2022-11-24T15:32:53;28.80;;;14.55;;
50301;SDS011;36550;50.472;19.744;2022-11-24T15:35:39;26.85;;;13.00;;
50301;SDS011;36550;50.472;19.744;2022-11-24T15:38:23;25.75;;;13.25;;
50301;SDS011;36550;50.472;19.744;2022-11-24T15:41:13;30.40;;;16.25;;
50301;SDS011;36550;50.472;19.744;2022-11-24T15:44:00;29.92;;;15.78;;
50301;SDS011;36550;50.472;19.744;2022-11-24T15:46:45;27.73;;;13.70;;
50301;SDS011;36550;50.472;19.744;2022-11-24T15:49:29;23.12;;;11.95;;
50301;SDS011;36550;50.472;19.744;2022-11-24T15:52:13;22.10;;;11.35;;
50301;SDS011;36550;50.472;19.744;2022-11-24T15:54:59;180.63;;;63.75;;
50301;SDS011;36550;50.472;19.744;2022-11-24T15:57:43;45.25;;;19.50;;
50301;SDS011;36550;50.472;19.744;2022-11-24T16:00:28;58.05;;;22.75;;
50301;SDS011;36550;50.472;19.744;2022-11-24T16:03:12;26.90;;;12.82;;
50301;SDS011;36550;50.472;19.744;2022-11-24T16:05:56;27.37;;;13.53;;
50301;SDS011;36550;50.472;19.744;2022-11-24T16:08:41;21.52;;;11.38;;
50301;SDS011;36550;50.472;19.744;2022-11-24T16:11:25;28.07;;;14.18;;
50301;SDS011;36550;50.472;19.744;2022-11-24T16:14:09;19.02;;;10.05;;
50301;SDS011;36550;50.472;19.744;2022-11-24T16:16:53;21.55;;;10.30;;
50301;SDS011;36550;50.472;19.744;2022-11-24T16:19:38;20.65;;;10.32;;
50301;SDS011;36550;50.472;19.744;2022-11-24T16:22:22;19.85;;;9.60;;
50301;SDS011;36550;50.472;19.744;2022-11-24T16:25:06;23.38;;;12.25;;
50301;SDS011;36550;50.472;19.744;2022-11-24T16:27:52;40.60;;;23.35;;
50301;SDS011;36550;50.472;19.744;2022-11-24T16:30:36;67.40;;;31.90;;
50301;SDS011;36550;50.472;19.744;2022-11-24T16:33:21;65.35;;;32.67;;
50301;SDS011;36550;50.472;19.744;2022-11-24T16:36:05;212.68;;;97.80;;
50301;SDS011;36550;50.472;19.744;2022-11-24T16:38:50;68.65;;;33.28;;
50301;SDS011;36550;50.472;19.744;2022-11-24T16:41:35;96.92;;;42.85;;
50301;SDS011;36550;50.472;19.744;2022-11-24T16:44:19;69.47;;;32.48;;
50301;SDS011;36550;50.472;19.744;2022-11-24T16:47:03;61.05;;;26.90;;
50301;SDS011;36550;50.472;19.744;2022-11-24T16:49:48;33.45;;;17.00;;
50301;SDS011;36550;50.472;19.744;2022-11-24T16:52:32;32.88;;;14.68;;
50301;SDS011;36550;50.472;19.744;2022-11-24T16:55:16;31.93;;;14.80;;
50301;SDS011;36550;50.472;19.744;2022-11-24T16:58:01;34.43;;;15.95;;
50301;SDS011;36550;50.472;19.744;2022-11-24T17:00:47;40.10;;;19.07;;
50301;SDS011;36550;50.472;19.744;2022-11-24T17:03:32;39.27;;;18.48;;
50301;SDS011;36550;50.472;19.744;2022-11-24T17:06:19;36.45;;;17.50;;
50301;SDS011;36550;50.472;19.744;2022-11-24T17:09:03;44.25;;;19.30;;
50301;SDS011;36550;50.472;19.744;2022-11-24T17:11:47;40.70;;;18.45;;
50301;SDS011;36550;50.472;19.744;2022-11-24T17:14:32;49.18;;;23.95;;
50301;SDS011;36550;50.472;19.744;2022-11-24T17:17:16;74.72;;;31.60;;
50301;SDS011;36550;50.472;19.744;2022-11-24T17:20:00;44.98;;;21.27;;
50301;SDS011;36550;50.472;19.744;2022-11-24T17:22:45;45.00;;;22.25;;
50301;SDS011;36550;50.472;19.744;2022-11-24T17:25:30;79.65;;;35.55;;
50301;SDS011;36550;50.472;19.744;2022-11-24T17:28:15;49.00;;;23.75;;
50301;SDS011;36550;50.472;19.744;2022-11-24T17:34:08;43.23;;;20.43;;
50301;SDS011;36550;50.472;19.744;2022-11-24T17:36:55;45.08;;;20.85;;
50301;SDS011;36550;50.472;19.744;2022-11-24T17:39:39;56.55;;;25.27;;
50301;SDS011;36550;50.472;19.744;2022-11-24T17:42:23;48.65;;;23.10;;
50301;SDS011;36550;50.472;19.744;2022-11-24T17:45:08;73.20;;;30.40;;
50301;SDS011;36550;50.472;19.744;2022-11-24T17:47:53;84.07;;;39.25;;
50301;SDS011;36550;50.472;19.744;2022-11-24T17:50:38;70.28;;;31.40;;
50301;SDS011;36550;50.472;19.744;2022-11-24T17:53:22;54.48;;;24.07;;
50301;SDS011;36550;50.472;19.744;2022-11-24T17:56:07;80.17;;;36.75;;